sensor_id;sensor_type;location;lat;lon;timestamp;pressure;altitude;pressure_sealevel;temperature;humidity
76108;BME280;64834;52.516;10.528;2023-08-06T00:00:05;100135.56;;;15.86;100.00
76108;BME280;64834;52.516;10.528;2023-08-06T00:02:30;100133.28;;;16.00;100.00
76108;BME280;64834;52.516;10.528;2023-08-06T00:04:55;100134.84;;;15.91;100.00
76108;BME280;64834;52.516;10.528;2023-08-06T00:07:21;100138.34;;;15.90;100.00
76108;BME280;64834;52.516;10.528;2023-08-06T00:09:46;100134.91;;;15.95;100.00
76108;BME280;64834;52.516;10.528;2023-08-06T00:12:11;100145.34;;;15.90;100.00
76108;BME280;64834;52.516;10.528;2023-08-06T00:14:37;100141.78;;;15.88;100.00
76108;BME280;64834;52.516;10.528;2023-08-06T00:17:02;100136.75;;;15.97;100.00
76108;BME280;64834;52.516;10.528;2023-08-06T00:19:27;100138.44;;;15.95;100.00
76108;BME280;64834;52.516;10.528;2023-08-06T00:21:53;100129.91;;;16.05;100.00
76108;BME280;64834;52.516;10.528;2023-08-06T00:24:18;100121.00;;;16.02;100.00
76108;BME280;64834;52.516;10.528;2023-08-06T00:26:43;100121.72;;;15.96;100.00
76108;BME280;64834;52.516;10.528;2023-08-06T00:29:09;100118.19;;;15.94;100.00
76108;BME280;64834;52.516;10.528;2023-08-06T00:31:34;100117.00;;;15.83;100.00
76108;BME280;64834;52.516;10.528;2023-08-06T00:33:59;100115.19;;;15.80;100.00
76108;BME280;64834;52.516;10.528;2023-08-06T00:36:25;100111.75;;;15.83;100.00
76108;BME280;64834;52.516;10.528;2023-08-06T00:38:50;100107.28;;;15.80;100.00
76108;BME280;64834;52.516;10.528;2023-08-06T00:41:15;100097.56;;;15.78;100.00
76108;BME280;64834;52.516;10.528;2023-08-06T00:43:41;100099.97;;;15.70;100.00
76108;BME280;64834;52.516;10.528;2023-08-06T00:46:06;100090.25;;;15.68;100.00
76108;BME280;64834;52.516;10.528;2023-08-06T00:48:32;100082.31;;;15.66;100.00
76108;BME280;64834;52.516;10.528;2023-08-06T00:50:57;100084.31;;;15.76;100.00
76108;BME280;64834;52.516;10.528;2023-08-06T00:53:25;100080.22;;;15.54;100.00
76108;BME280;64834;52.516;10.528;2023-08-06T00:55:51;100066.50;;;15.66;100.00
76108;BME280;64834;52.516;10.528;2023-08-06T00:58:16;100063.53;;;15.55;100.00
76108;BME280;64834;52.516;10.528;2023-08-06T01:00:41;100060.16;;;15.61;100.00
76108;BME280;64834;52.516;10.528;2023-08-06T01:03:07;100054.97;;;15.62;100.00
76108;BME280;64834;52.516;10.528;2023-08-06T01:05:32;100055.78;;;15.61;100.00
76108;BME280;64834;52.516;10.528;2023-08-06T01:08:16;100036.50;;;15.62;100.00
76108;BME280;64834;52.516;10.528;2023-08-06T01:13:22;100043.19;;;15.50;100.00
76108;BME280;64834;52.516;10.528;2023-08-06T01:15:51;100041.31;;;15.46;100.00
76108;BME280;64834;52.516;10.528;2023-08-06T01:18:19;100040.63;;;15.53;100.00
76108;BME280;64834;52.516;10.528;2023-08-06T01:20:45;100029.09;;;15.49;100.00
76108;BME280;64834;52.516;10.528;2023-08-06T01:23:10;100030.81;;;15.47;100.00
76108;BME280;64834;52.516;10.528;2023-08-06T01:25:58;100019.53;;;15.53;100.00
76108;BME280;64834;52.516;10.528;2023-08-06T01:28:40;100011.88;;;15.62;100.00
76108;BME280;64834;52.516;10.528;2023-08-06T01:31:07;100003.09;;;15.63;100.00
76108;BME280;64834;52.516;10.528;2023-08-06T01:33:38;100012.94;;;15.70;100.00
76108;BME280;64834;52.516;10.528;2023-08-06T01:36:06;100018.22;;;15.70;100.00
76108;BME280;64834;52.516;10.528;2023-08-06T01:38:31;100021.56;;;15.63;100.00
76108;BME280;64834;52.516;10.528;2023-08-06T01:40:57;100026.88;;;15.64;100.00
76108;BME280;64834;52.516;10.528;2023-08-06T01:43:22;100021.56;;;15.63;100.00
76108;BME280;64834;52.516;10.528;2023-08-06T01:45:48;100017.00;;;15.57;100.00
76108;BME280;64834;52.516;10.528;2023-08-06T01:48:13;100003.22;;;15.68;100.00
76108;BME280;64834;52.516;10.528;2023-08-06T01:50:38;99997.94;;;15.68;100.00
76108;BME280;64834;52.516;10.528;2023-08-06T01:53:04;99992.56;;;15.64;100.00
76108;BME280;64834;52.516;10.528;2023-08-06T01:55:29;99994.31;;;15.62;100.00
76108;BME280;64834;52.516;10.528;2023-08-06T01:57:55;99984.34;;;15.52;100.00
76108;BME280;64834;52.516;10.528;2023-08-06T02:00:20;99993.16;;;15.53;100.00
76108;BME280;64834;52.516;10.528;2023-08-06T02:02:46;99984.44;;;15.55;100.00
76108;BME280;64834;52.516;10.528;2023-08-06T02:05:11;99981.84;;;15.58;100.00
76108;BME280;64834;52.516;10.528;2023-08-06T02:07:36;99975.53;;;15.52;100.00
76108;BME280;64834;52.516;10.528;2023-08-06T02:10:02;99972.69;;;15.43;100.00
76108;BME280;64834;52.516;10.528;2023-08-06T02:12:27;99967.41;;;15.43;100.00
76108;BME280;64834;52.516;10.528;2023-08-06T02:14:53;99970.03;;;15.41;100.00
76108;BME280;64834;52.516;10.528;2023-08-06T02:17:18;99968.34;;;15.45;100.00
76108;BME280;64834;52.516;10.528;2023-08-06T02:19:43;99980.97;;;15.58;100.00
76108;BME280;64834;52.516;10.528;2023-08-06T02:22:08;99971.13;;;15.51;100.00
76108;BME280;64834;52.516;10.528;2023-08-06T02:24:34;99968.44;;;15.48;100.00
76108;BME280;64834;52.516;10.528;2023-08-06T02:26:59;99972.91;;;15.52;100.00
76108;BME280;64834;52.516;10.528;2023-08-06T02:29:24;99968.47;;;15.51;100.00
76108;BME280;64834;52.516;10.528;2023-08-06T02:31:50;99975.34;;;15.44;100.00
76108;BME280;64834;52.516;10.528;2023-08-06T02:34:15;99982.31;;;15.41;100.00
76108;BME280;64834;52.516;10.528;2023-08-06T02:36:40;99978.44;;;15.26;100.00
76108;BME280;64834;52.516;10.528;2023-08-06T02:39:06;99981.94;;;15.27;100.00
76108;BME280;64834;52.516;10.528;2023-08-06T02:41:31;99983.81;;;15.31;100.00
76108;BME280;64834;52.516;10.528;2023-08-06T02:43:57;99976.00;;;15.34;100.00
76108;BME280;64834;52.516;10.528;2023-08-06T02:46:22;99974.25;;;15.34;100.00
76108;BME280;64834;52.516;10.528;2023-08-06T02:48:47;99961.91;;;15.33;100.00
76108;BME280;64834;52.516;10.528;2023-08-06T02:51:13;99958.22;;;15.27;100.00
76108;BME280;64834;52.516;10.528;2023-08-06T02:53:38;99950.47;;;15.33;100.00
76108;BME280;64834;52.516;10.528;2023-08-06T02:56:04;99942.63;;;15.34;100.00
76108;BME280;64834;52.516;10.528;2023-08-06T02:58:29;99942.38;;;15.25;100.00
76108;BME280;64834;52.516;10.528;2023-08-06T03:01:05;99931.94;;;15.28;100.00
76108;BME280;64834;52.516;10.528;2023-08-06T03:03:31;99937.25;;;15.31;100.00
76108;BME280;64834;52.516;10.528;2023-08-06T03:05:57;99936.47;;;15.34;100.00
76108;BME280;64834;52.516;10.528;2023-08-06T03:08:23;99919.41;;;15.20;100.00
76108;BME280;64834;52.516;10.528;2023-08-06T03:10:49;99927.63;;;15.33;100.00
76108;BME280;64834;52.516;10.528;2023-08-06T03:13:15;99926.56;;;15.25;100.00
76108;BME280;64834;52.516;10.528;2023-08-06T03:15:41;99922.19;;;15.26;100.00
76108;BME280;64834;52.516;10.528;2023-08-06T03:18:06;99924.75;;;15.23;100.00
76108;BME280;64834;52.516;10.528;2023-08-06T03:20:32;99931.81;;;15.24;100.00
76108;BME280;64834;52.516;10.528;2023-08-06T03:22:57;99922.88;;;15.17;100.00
76108;BME280;64834;52.516;10.528;2023-08-06T03:25:23;99918.50;;;15.19;100.00
76108;BME280;64834;52.516;10.528;2023-08-06T03:27:48;99919.41;;;15.20;100.00
76108;BME280;64834;52.516;10.528;2023-08-06T03:30:13;99906.13;;;15.15;100.00
76108;BME280;64834;52.516;10.528;2023-08-06T03:32:39;99914.19;;;15.21;100.00
76108;BME280;64834;52.516;10.528;2023-08-06T03:35:04;99912.50;;;15.25;100.00
76108;BME280;64834;52.516;10.528;2023-08-06T03:37:30;99910.00;;;15.31;100.00
76108;BME280;64834;52.516;10.528;2023-08-06T03:39:55;99921.44;;;15.31;100.00
76108;BME280;64834;52.516;10.528;2023-08-06T03:42:20;99917.94;;;15.32;100.00
76108;BME280;64834;52.516;10.528;2023-08-06T03:44:46;99924.09;;;15.33;100.00
76108;BME280;64834;52.516;10.528;2023-08-06T03:47:12;99922.25;;;15.27;100.00
76108;BME280;64834;52.516;10.528;2023-08-06T03:49:37;99927.47;;;15.26;100.00
76108;BME280;64834;52.516;10.528;2023-08-06T03:52:03;99925.56;;;15.20;100.00
76108;BME280;64834;52.516;10.528;2023-08-06T03:54:29;99933.59;;;15.25;100.00
76108;BME280;64834;52.516;10.528;2023-08-06T03:56:55;99931.19;;;15.34;100.00
76108;BME280;64834;52.516;10.528;2023-08-06T03:59:20;99918.59;;;15.22;100.00
76108;BME280;64834;52.516;10.528;2023-08-06T04:01:45;99918.50;;;15.19;100.00
76108;BME280;64834;52.516;10.528;2023-08-06T04:04:11;99915.06;;;15.22;100.00
76108;BME280;64834;52.516;10.528;2023-08-06T04:06:36;99909.75;;;15.20;100.00
76108;BME280;64834;52.516;10.528;2023-08-06T04:09:01;99912.03;;;15.06;100.00
76108;BME280;64834;52.516;10.528;2023-08-06T04:11:27;99912.84;;;15.02;100.00
76108;BME280;64834;52.516;10.528;2023-08-06T04:13:52;99910.94;;;14.97;100.00
76108;BME280;64834;52.516;10.528;2023-08-06T04:16:19;99911.16;;;15.06;100.00
76108;BME280;64834;52.516;10.528;2023-08-06T04:18:44;99911.31;;;15.12;100.00
76108;BME280;64834;52.516;10.528;2023-08-06T04:21:10;99904.31;;;15.14;100.00
76108;BME280;64834;52.516;10.528;2023-08-06T04:23:36;99897.19;;;15.08;100.00
76108;BME280;64834;52.516;10.528;2023-08-06T04:26:01;99900.94;;;15.20;100.00
76108;BME280;64834;52.516;10.528;2023-08-06T04:28:27;99899.88;;;15.11;100.00
76108;BME280;64834;52.516;10.528;2023-08-06T04:30:52;99900.00;;;15.16;100.00
76108;BME280;64834;52.516;10.528;2023-08-06T04:33:19;99909.59;;;15.14;100.00
76108;BME280;64834;52.516;10.528;2023-08-06T04:35:44;99909.59;;;15.14;100.00
76108;BME280;64834;52.516;10.528;2023-08-06T04:38:09;99913.25;;;15.19;100.00
76108;BME280;64834;52.516;10.528;2023-08-06T04:40:35;99909.00;;;15.26;100.00
76108;BME280;64834;52.516;10.528;2023-08-06T04:43:02;99904.59;;;15.25;100.00
76108;BME280;64834;52.516;10.528;2023-08-06T04:45:27;99911.31;;;15.12;100.00
76108;BME280;64834;52.516;10.528;2023-08-06T04:47:52;99908.09;;;15.24;100.00
76108;BME280;64834;52.516;10.528;2023-08-06T04:50:19;99909.28;;;15.36;100.00
76108;BME280;64834;52.516;10.528;2023-08-06T04:52:44;99904.88;;;15.37;100.00
76108;BME280;64834;52.516;10.528;2023-08-06T04:55:10;99909.41;;;15.43;100.00
76108;BME280;64834;52.516;10.528;2023-08-06T04:57:35;99914.69;;;15.43;100.00
76108;BME280;64834;52.516;10.528;2023-08-06T05:00:00;99900.25;;;15.27;100.00
76108;BME280;64834;52.516;10.528;2023-08-06T05:02:25;99908.00;;;15.21;100.00
76108;BME280;64834;52.516;10.528;2023-08-06T05:04:51;99907.31;;;15.28;100.00
76108;BME280;64834;52.516;10.528;2023-08-06T05:07:16;99904.84;;;15.35;100.00
76108;BME280;64834;52.516;10.528;2023-08-06T05:09:41;99899.63;;;15.37;100.00
76108;BME280;64834;52.516;10.528;2023-08-06T05:12:07;99903.28;;;15.44;100.00
76108;BME280;64834;52.516;10.528;2023-08-06T05:14:32;99904.19;;;15.46;100.00
76108;BME280;64834;52.516;10.528;2023-08-06T05:16:58;99900.66;;;15.45;100.00
76108;BME280;64834;52.516;10.528;2023-08-06T05:19:23;99895.31;;;15.41;100.00
76108;BME280;64834;52.516;10.528;2023-08-06T05:21:48;99889.09;;;15.38;100.00
76108;BME280;64834;52.516;10.528;2023-08-06T05:24:13;99886.59;;;15.45;100.00
76108;BME280;64834;52.516;10.528;2023-08-06T05:26:39;99886.53;;;15.40;100.00
76108;BME280;64834;52.516;10.528;2023-08-06T05:29:04;99889.78;;;15.30;100.00
76108;BME280;64834;52.516;10.528;2023-08-06T05:31:29;99889.53;;;15.21;100.00
76108;BME280;64834;52.516;10.528;2023-08-06T05:33:55;99886.81;;;15.16;100.00
76108;BME280;64834;52.516;10.528;2023-08-06T05:36:20;99883.19;;;15.11;100.00
76108;BME280;64834;52.516;10.528;2023-08-06T05:38:46;99884.97;;;15.12;100.00
76108;BME280;64834;52.516;10.528;2023-08-06T05:41:11;99886.72;;;15.13;100.00
76108;BME280;64834;52.516;10.528;2023-08-06T05:43:37;99890.31;;;15.15;100.00
76108;BME280;64834;52.516;10.528;2023-08-06T05:46:05;99893.72;;;15.11;100.00
76108;BME280;64834;52.516;10.528;2023-08-06T05:48:30;99886.97;;;15.22;100.00
76108;BME280;64834;52.516;10.528;2023-08-06T05:50:57;99877.44;;;15.27;100.00
76108;BME280;64834;52.516;10.528;2023-08-06T05:53:22;99889.06;;;15.37;100.00
76108;BME280;64834;52.516;10.528;2023-08-06T05:55:47;99884.81;;;15.44;100.00
76108;BME280;64834;52.516;10.528;2023-08-06T05:58:13;99885.81;;;15.49;100.00
76108;BME280;64834;52.516;10.528;2023-08-06T06:00:38;99882.63;;;15.62;100.00
76108;BME280;64834;52.516;10.528;2023-08-06T06:03:03;99873.56;;;15.51;100.00
76108;BME280;64834;52.516;10.528;2023-08-06T06:05:28;99876.31;;;15.55;100.00
76108;BME280;64834;52.516;10.528;2023-08-06T06:07:54;99879.84;;;15.57;100.00
76108;BME280;64834;52.516;10.528;2023-08-06T06:10:19;99879.25;;;15.68;100.00
76108;BME280;64834;52.516;10.528;2023-08-06T06:12:44;99873.94;;;15.66;100.00
76108;BME280;64834;52.516;10.528;2023-08-06T06:15:10;99867.56;;;15.58;100.00
76108;BME280;64834;52.516;10.528;2023-08-06T06:17:35;99869.44;;;15.62;100.00
76108;BME280;64834;52.516;10.528;2023-08-06T06:20:01;99870.47;;;15.69;100.00
76108;BME280;64834;52.516;10.528;2023-08-06T06:22:26;99868.69;;;15.66;100.00
76108;BME280;64834;52.516;10.528;2023-08-06T06:24:51;99861.34;;;15.54;100.00
76108;BME280;64834;52.516;10.528;2023-08-06T06:27:17;99863.22;;;15.60;100.00
76108;BME280;64834;52.516;10.528;2023-08-06T06:29:42;99861.78;;;15.73;100.00
76108;BME280;64834;52.516;10.528;2023-08-06T06:32:07;99856.44;;;15.71;100.00
76108;BME280;64834;52.516;10.528;2023-08-06T06:34:33;99857.41;;;15.75;100.00
76108;BME280;64834;52.516;10.528;2023-08-06T06:36:58;99858.47;;;15.83;100.00
76108;BME280;64834;52.516;10.528;2023-08-06T06:39:23;99862.00;;;15.83;100.00
76108;BME280;64834;52.516;10.528;2023-08-06T06:41:49;99868.09;;;15.81;100.00
76108;BME280;64834;52.516;10.528;2023-08-06T06:44:14;99866.59;;;15.94;100.00
76108;BME280;64834;52.516;10.528;2023-08-06T06:46:40;99862.66;;;16.15;100.00
76108;BME280;64834;52.516;10.528;2023-08-06T06:49:06;99862.72;;;16.18;100.00
76108;BME280;64834;52.516;10.528;2023-08-06T06:51:31;99863.78;;;16.28;100.00
76108;BME280;64834;52.516;10.528;2023-08-06T06:53:57;99867.47;;;16.36;100.00
76108;BME280;64834;52.516;10.528;2023-08-06T06:56:22;99856.13;;;16.42;100.00
76108;BME280;64834;52.516;10.528;2023-08-06T06:58:47;99858.72;;;16.40;100.00
76108;BME280;64834;52.516;10.528;2023-08-06T07:01:13;99862.41;;;16.47;100.00
76108;BME280;64834;52.516;10.528;2023-08-06T07:03:38;99864.38;;;16.60;100.00
76108;BME280;64834;52.516;10.528;2023-08-06T07:06:03;99861.66;;;16.56;100.00
76108;BME280;64834;52.516;10.528;2023-08-06T07:08:30;99875.00;;;16.63;100.00
76108;BME280;64834;52.516;10.528;2023-08-06T07:11:02;99875.00;;;16.65;100.00
76108;BME280;64834;52.516;10.528;2023-08-06T07:13:28;99867.31;;;16.76;100.00
76108;BME280;64834;52.516;10.528;2023-08-06T07:15:54;99865.63;;;16.79;100.00
76108;BME280;64834;52.516;10.528;2023-08-06T07:18:20;99866.66;;;16.87;100.00
76108;BME280;64834;52.516;10.528;2023-08-06T07:20:49;99855.84;;;16.74;98.62
76108;BME280;64834;52.516;10.528;2023-08-06T07:23:14;99867.50;;;16.86;99.18
76108;BME280;64834;52.516;10.528;2023-08-06T07:25:40;99867.44;;;16.82;98.89
76108;BME280;64834;52.516;10.528;2023-08-06T07:28:05;99860.72;;;17.02;99.58
76108;BME280;64834;52.516;10.528;2023-08-06T07:30:30;99860.22;;;17.27;98.79
76108;BME280;64834;52.516;10.528;2023-08-06T07:32:56;99865.97;;;17.58;96.66
76108;BME280;64834;52.516;10.528;2023-08-06T07:35:21;99869.88;;;17.83;95.62
76108;BME280;64834;52.516;10.528;2023-08-06T07:37:46;99874.50;;;17.99;92.62
76108;BME280;64834;52.516;10.528;2023-08-06T07:40:12;99870.25;;;18.15;90.76
76108;BME280;64834;52.516;10.528;2023-08-06T07:42:37;99871.69;;;17.86;92.05
76108;BME280;64834;52.516;10.528;2023-08-06T07:45:03;99862.50;;;17.61;93.88
76108;BME280;64834;52.516;10.528;2023-08-06T07:47:28;99863.00;;;17.35;93.47
76108;BME280;64834;52.516;10.528;2023-08-06T07:49:53;99864.03;;;17.45;92.15
76108;BME280;64834;52.516;10.528;2023-08-06T07:52:19;99871.25;;;17.58;91.35
76108;BME280;64834;52.516;10.528;2023-08-06T07:54:44;99870.47;;;17.64;89.56
76108;BME280;64834;52.516;10.528;2023-08-06T07:57:09;99865.59;;;17.94;90.43
76108;BME280;64834;52.516;10.528;2023-08-06T07:59:35;99856.19;;;18.19;87.92
76108;BME280;64834;52.516;10.528;2023-08-06T08:02:00;99846.94;;;18.61;88.87
76108;BME280;64834;52.516;10.528;2023-08-06T08:04:26;99844.59;;;18.95;87.05
76108;BME280;64834;52.516;10.528;2023-08-06T08:06:51;99854.16;;;18.74;83.90
76108;BME280;64834;52.516;10.528;2023-08-06T08:09:16;99851.41;;;18.67;83.66
76108;BME280;64834;52.516;10.528;2023-08-06T08:11:42;99854.28;;;18.88;85.36
76108;BME280;64834;52.516;10.528;2023-08-06T08:14:07;99853.00;;;18.54;85.16
76108;BME280;64834;52.516;10.528;2023-08-06T08:16:33;99853.06;;;18.55;86.45
76108;BME280;64834;52.516;10.528;2023-08-06T08:18:59;99840.75;;;18.60;85.43
76108;BME280;64834;52.516;10.528;2023-08-06T08:21:24;99842.53;;;18.66;84.28
76108;BME280;64834;52.516;10.528;2023-08-06T08:23:50;99838.41;;;18.97;83.36
76108;BME280;64834;52.516;10.528;2023-08-06T08:26:16;99839.06;;;18.67;81.79
76108;BME280;64834;52.516;10.528;2023-08-06T08:28:41;99838.06;;;18.59;83.76
76108;BME280;64834;52.516;10.528;2023-08-06T08:31:10;99846.06;;;18.64;81.90
76108;BME280;64834;52.516;10.528;2023-08-06T08:33:37;99844.88;;;19.34;80.58
76108;BME280;64834;52.516;10.528;2023-08-06T08:36:03;99835.19;;;19.39;80.49
76108;BME280;64834;52.516;10.528;2023-08-06T08:38:28;99838.81;;;19.51;78.68
76108;BME280;64834;52.516;10.528;2023-08-06T08:40:54;99831.69;;;19.45;77.75
76108;BME280;64834;52.516;10.528;2023-08-06T08:43:23;99835.06;;;19.23;80.57
76108;BME280;64834;52.516;10.528;2023-08-06T08:45:53;99834.31;;;19.36;79.05
76108;BME280;64834;52.516;10.528;2023-08-06T08:48:24;99828.88;;;19.18;79.21
76108;BME280;64834;52.516;10.528;2023-08-06T08:50:50;99826.47;;;19.60;79.62
76108;BME280;64834;52.516;10.528;2023-08-06T08:53:16;99830.09;;;19.72;75.47
76108;BME280;64834;52.516;10.528;2023-08-06T08:55:43;99829.88;;;19.38;77.37
76108;BME280;64834;52.516;10.528;2023-08-06T08:58:09;99826.25;;;19.25;78.05
76108;BME280;64834;52.516;10.528;2023-08-06T09:00:35;99816.63;;;19.38;75.74
76108;BME280;64834;52.516;10.528;2023-08-06T09:03:01;99825.50;;;19.46;78.96
76108;BME280;64834;52.516;10.528;2023-08-06T09:05:31;99820.44;;;19.87;76.59
76108;BME280;64834;52.516;10.528;2023-08-06T09:08:02;99818.75;;;20.20;75.67
76108;BME280;64834;52.516;10.528;2023-08-06T09:10:28;99820.50;;;20.16;73.54
76108;BME280;64834;52.516;10.528;2023-08-06T09:12:55;99817.03;;;20.40;74.60
76108;BME280;64834;52.516;10.528;2023-08-06T09:15:24;99823.28;;;20.48;76.08
76108;BME280;64834;52.516;10.528;2023-08-06T09:17:50;99810.91;;;20.57;71.94
76108;BME280;64834;52.516;10.528;2023-08-06T09:20:15;99813.44;;;20.23;73.14
76108;BME280;64834;52.516;10.528;2023-08-06T09:22:41;99817.03;;;20.37;73.03
76108;BME280;64834;52.516;10.528;2023-08-06T09:25:07;99815.31;;;20.71;73.26
76108;BME280;64834;52.516;10.528;2023-08-06T09:27:36;99819.75;;;20.74;71.07
76108;BME280;64834;52.516;10.528;2023-08-06T09:30:03;99822.31;;;20.20;73.81
76108;BME280;64834;52.516;10.528;2023-08-06T09:32:45;99817.09;;;20.83;75.34
76108;BME280;64834;52.516;10.528;2023-08-06T09:35:19;99807.34;;;20.93;69.52
76108;BME280;64834;52.516;10.528;2023-08-06T09:37:45;99795.81;;;20.46;69.05
76108;BME280;64834;52.516;10.528;2023-08-06T09:40:30;99796.63;;;20.19;73.44
76108;BME280;64834;52.516;10.528;2023-08-06T09:42:56;99798.47;;;20.45;72.82
76108;BME280;64834;52.516;10.528;2023-08-06T09:45:22;99801.16;;;20.63;70.58
76108;BME280;64834;52.516;10.528;2023-08-06T09:47:49;99797.59;;;20.83;69.13
76108;BME280;64834;52.516;10.528;2023-08-06T09:50:18;99797.59;;;20.83;67.30
76108;BME280;64834;52.516;10.528;2023-08-06T09:52:44;99797.59;;;20.49;67.35
76108;BME280;64834;52.516;10.528;2023-08-06T09:55:11;99798.41;;;20.28;68.22
76108;BME280;64834;52.516;10.528;2023-08-06T09:57:37;99799.28;;;20.21;69.50
76108;BME280;64834;52.516;10.528;2023-08-06T10:00:03;99797.59;;;20.54;69.68
76108;BME280;64834;52.516;10.528;2023-08-06T10:02:30;99795.84;;;20.50;67.95
76108;BME280;64834;52.516;10.528;2023-08-06T10:04:57;99794.91;;;20.47;68.93
76108;BME280;64834;52.516;10.528;2023-08-06T10:07:23;99786.06;;;20.84;69.08
76108;BME280;64834;52.516;10.528;2023-08-06T10:09:49;99782.56;;;20.68;67.47
76108;BME280;64834;52.516;10.528;2023-08-06T10:12:15;99774.53;;;21.01;65.72
76108;BME280;64834;52.516;10.528;2023-08-06T10:14:43;99781.63;;;20.72;66.39
76108;BME280;64834;52.516;10.528;2023-08-06T10:17:09;99783.44;;;20.88;66.00
76108;BME280;64834;52.516;10.528;2023-08-06T10:19:36;99781.59;;;21.16;63.04
76108;BME280;64834;52.516;10.528;2023-08-06T10:22:12;99779.81;;;21.31;62.44
76108;BME280;64834;52.516;10.528;2023-08-06T10:24:48;99776.09;;;21.74;62.72
76108;BME280;64834;52.516;10.528;2023-08-06T10:27:13;99772.59;;;21.71;61.23
76108;BME280;64834;52.516;10.528;2023-08-06T10:29:39;99769.09;;;21.55;61.17
76108;BME280;64834;52.516;10.528;2023-08-06T10:32:04;99767.31;;;21.59;61.30
76108;BME280;64834;52.516;10.528;2023-08-06T10:34:58;99768.13;;;21.73;62.67
76108;BME280;64834;52.516;10.528;2023-08-06T10:37:35;99755.84;;;21.37;62.32
76108;BME280;64834;52.516;10.528;2023-08-06T10:40:01;99763.88;;;21.32;61.45
76108;BME280;64834;52.516;10.528;2023-08-06T10:42:28;99754.97;;;21.24;59.83
76108;BME280;64834;52.516;10.528;2023-08-06T10:45:16;99755.00;;;21.16;60.74
76108;BME280;64834;52.516;10.528;2023-08-06T10:47:43;99763.81;;;21.37;59.17
76108;BME280;64834;52.516;10.528;2023-08-06T10:50:12;99754.84;;;21.67;59.89
76108;BME280;64834;52.516;10.528;2023-08-06T10:52:37;99737.94;;;21.81;55.30
76108;BME280;64834;52.516;10.528;2023-08-06T10:55:03;99749.56;;;21.59;56.65
76108;BME280;64834;52.516;10.528;2023-08-06T10:57:28;99742.34;;;21.83;56.61
76108;BME280;64834;52.516;10.528;2023-08-06T10:59:54;99739.56;;;22.04;54.50
76108;BME280;64834;52.516;10.528;2023-08-06T11:02:19;99736.88;;;22.07;54.54
76108;BME280;64834;52.516;10.528;2023-08-06T11:04:44;99733.06;;;22.46;53.34
76108;BME280;64834;52.516;10.528;2023-08-06T11:07:10;99735.56;;;22.69;50.67
76108;BME280;64834;52.516;10.528;2023-08-06T11:09:35;99726.59;;;22.76;53.87
76108;BME280;64834;52.516;10.528;2023-08-06T11:12:00;99730.44;;;22.42;50.72
76108;BME280;64834;52.516;10.528;2023-08-06T11:14:26;99724.44;;;22.15;53.59
76108;BME280;64834;52.516;10.528;2023-08-06T11:16:51;99720.16;;;21.84;53.87
76108;BME280;64834;52.516;10.528;2023-08-06T11:19:17;99725.34;;;22.05;50.90
76108;BME280;64834;52.516;10.528;2023-08-06T11:21:43;99718.97;;;22.33;53.10
76108;BME280;64834;52.516;10.528;2023-08-06T11:24:10;99715.28;;;22.48;49.85
76108;BME280;64834;52.516;10.528;2023-08-06T11:26:36;99701.13;;;22.40;48.88
76108;BME280;64834;52.516;10.528;2023-08-06T11:29:02;99712.63;;;22.44;50.18
76108;BME280;64834;52.516;10.528;2023-08-06T11:31:28;99706.50;;;22.34;50.86
76108;BME280;64834;52.516;10.528;2023-08-06T11:33:54;99700.13;;;22.53;52.36
76108;BME280;64834;52.516;10.528;2023-08-06T11:36:33;99701.63;;;22.80;47.67
76108;BME280;64834;52.516;10.528;2023-08-06T11:39:03;99701.94;;;23.39;48.99
76108;BME280;64834;52.516;10.528;2023-08-06T11:41:30;99703.81;;;23.29;48.13
76108;BME280;64834;52.516;10.528;2023-08-06T11:43:56;99699.84;;;22.88;49.89
76108;BME280;64834;52.516;10.528;2023-08-06T11:46:21;99708.78;;;22.75;50.18
76108;BME280;64834;52.516;10.528;2023-08-06T11:48:58;99701.81;;;22.65;51.10
76108;BME280;64834;52.516;10.528;2023-08-06T11:51:27;99698.28;;;22.63;51.04
76108;BME280;64834;52.516;10.528;2023-08-06T11:53:56;99706.22;;;22.66;51.71
76108;BME280;64834;52.516;10.528;2023-08-06T11:56:21;99694.63;;;22.72;52.87
76108;BME280;64834;52.516;10.528;2023-08-06T11:58:47;99689.00;;;23.02;53.12
76108;BME280;64834;52.516;10.528;2023-08-06T12:01:14;99680.94;;;23.08;52.39
76108;BME280;64834;52.516;10.528;2023-08-06T12:03:40;99688.69;;;23.28;51.71
76108;BME280;64834;52.516;10.528;2023-08-06T12:06:05;99682.97;;;22.82;53.13
76108;BME280;64834;52.516;10.528;2023-08-06T12:08:30;99684.16;;;22.50;54.64
76108;BME280;64834;52.516;10.528;2023-08-06T12:10:56;99677.22;;;22.29;55.72
76108;BME280;64834;52.516;10.528;2023-08-06T12:13:22;99676.59;;;21.94;54.68
76108;BME280;64834;52.516;10.528;2023-08-06T12:15:47;99673.88;;;21.98;53.41
76108;BME280;64834;52.516;10.528;2023-08-06T12:18:13;99674.91;;;21.77;53.64
76108;BME280;64834;52.516;10.528;2023-08-06T12:20:38;99669.34;;;22.16;53.04
76108;BME280;64834;52.516;10.528;2023-08-06T12:23:04;99666.97;;;22.82;52.75
76108;BME280;64834;52.516;10.528;2023-08-06T12:25:29;99661.69;;;22.76;54.33
76108;BME280;64834;52.516;10.528;2023-08-06T12:27:54;99659.50;;;22.24;53.28
76108;BME280;64834;52.516;10.528;2023-08-06T12:30:20;99669.44;;;21.97;54.92
76108;BME280;64834;52.516;10.528;2023-08-06T12:32:45;99663.44;;;21.69;54.72
76108;BME280;64834;52.516;10.528;2023-08-06T12:35:10;99662.56;;;21.64;56.62
76108;BME280;64834;52.516;10.528;2023-08-06T12:37:36;99659.97;;;21.52;53.93
76108;BME280;64834;52.516;10.528;2023-08-06T12:40:04;99669.75;;;21.45;55.89